Time;durP1;ratioP1;P1;durP2;ratioP2;P2;SDS_P1;SDS_P2;PMS_P1;PMS_P2;Temp;Humidity;BMP_temperature;BMP_pressure;BME280_temperature;BME280_humidity;BME280_pressure;Samples;Min_cycle;Max_cycle;Signal;HPM_P1;HPM_P2
2021/12/27 00:01:07;;;;;;;26.35;12.43;;;-1.00;99.90;;;;;;5039955;28;20033;-65
2021/12/27 00:03:33;;;;;;;25.98;13.98;;;-1.00;99.90;;;;;;5040886;28;20044;-65
2021/12/27 00:05:59;;;;;;;24.88;12.93;;;-1.10;99.90;;;;;;5027980;28;20037;-65
2021/12/27 00:08:24;;;;;;;27.35;12.95;;;-1.20;99.90;;;;;;5031610;28;20041;-64
2021/12/27 00:10:51;;;;;;;25.58;11.85;;;-1.20;99.90;;;;;;5045315;28;20063;-65
2021/12/27 00:13:17;;;;;;;29.02;13.18;;;-1.30;99.90;;;;;;5030297;28;20042;-65
2021/12/27 00:15:43;;;;;;;29.25;13.65;;;-1.40;99.90;;;;;;5029522;28;20399;-65
2021/12/27 00:18:09;;;;;;;28.73;13.85;;;-1.40;99.90;;;;;;5030659;28;20480;-65
2021/12/27 00:20:35;;;;;;;27.88;12.98;;;-1.30;99.90;;;;;;5046467;28;20061;-65
2021/12/27 00:23:01;;;;;;;29.05;13.02;;;-1.30;99.90;;;;;;5039506;28;20041;-65
2021/12/27 00:25:28;;;;;;;26.60;12.52;;;-1.30;99.90;;;;;;5030581;28;20613;-65
2021/12/27 00:27:55;;;;;;;26.67;12.82;;;-1.30;99.90;;;;;;5033152;28;20049;-65
2021/12/27 00:30:20;;;;;;;27.48;14.05;;;-1.30;99.90;;;;;;5034756;28;20045;-65
2021/12/27 00:32:47;;;;;;;27.13;14.60;;;-1.20;99.90;;;;;;5035768;28;20183;-64
2021/12/27 00:35:14;;;;;;;23.48;12.20;;;-1.20;99.90;;;;;;5020460;28;20068;-65
2021/12/27 00:37:40;;;;;;;26.08;12.90;;;-1.20;99.90;;;;;;5039636;28;20044;-65
2021/12/27 00:40:08;;;;;;;27.65;14.13;;;-1.20;99.90;;;;;;5044752;28;20428;-64
2021/12/27 00:42:33;;;;;;;26.38;13.55;;;-1.10;99.90;;;;;;5046520;28;20037;-65
2021/12/27 00:44:59;;;;;;;23.33;12.27;;;-1.10;99.90;;;;;;5038575;28;20144;-64
2021/12/27 00:47:25;;;;;;;30.15;14.50;;;-1.10;99.90;;;;;;5033819;28;20041;-65
2021/12/27 00:49:50;;;;;;;27.88;14.18;;;-1.00;99.90;;;;;;5045255;28;20120;-65
2021/12/27 00:52:16;;;;;;;30.00;13.45;;;-1.00;99.90;;;;;;5029403;28;20156;-65
2021/12/27 00:54:41;;;;;;;31.33;14.00;;;-1.00;99.90;;;;;;5043171;28;20044;-65
2021/12/27 00:57:07;;;;;;;28.40;12.98;;;-1.00;99.90;;;;;;5042048;28;20040;-65
2021/12/27 00:59:33;;;;;;;28.20;14.43;;;-1.00;99.90;;;;;;5011886;28;20037;-64
2021/12/27 01:01:58;;;;;;;28.63;12.10;;;-0.90;99.90;;;;;;5027755;28;20034;-65
2021/12/27 01:04:24;;;;;;;30.00;13.57;;;-0.90;99.90;;;;;;5013811;28;20048;-65
2021/12/27 01:06:50;;;;;;;23.10;13.02;;;-0.90;99.90;;;;;;5018161;28;20056;-66
2021/12/27 01:09:28;;;;;;;28.38;14.27;;;-0.90;99.90;;;;;;5013588;28;20045;-65
2021/12/27 01:12:25;;;;;;;29.15;14.68;;;-0.90;99.90;;;;;;5029187;28;20523;-65
2021/12/27 01:17:39;;;;;;;29.33;14.02;;;-0.80;99.90;;;;;;5042582;28;20196;-65
2021/12/27 01:20:08;;;;;;;29.45;13.45;;;-0.80;99.90;;;;;;5040968;28;20090;-65
2021/12/27 01:22:34;;;;;;;27.48;12.00;;;-0.80;99.90;;;;;;5049472;28;20052;-65
2021/12/27 01:25:00;;;;;;;27.55;14.32;;;-0.80;99.90;;;;;;5028265;28;20482;-65
2021/12/27 01:27:25;;;;;;;26.15;14.00;;;-0.80;99.90;;;;;;5045794;28;20048;-65
2021/12/27 01:29:51;;;;;;;30.55;14.20;;;-0.80;99.90;;;;;;5027552;28;20138;-65
2021/12/27 01:32:17;;;;;;;28.80;13.90;;;-0.80;99.90;;;;;;5034288;28;20041;-65
2021/12/27 01:34:42;;;;;;;30.63;14.52;;;-0.80;99.90;;;;;;5038687;28;20056;-65
2021/12/27 01:37:08;;;;;;;29.05;13.95;;;-0.80;99.90;;;;;;5039943;28;20041;-65
2021/12/27 01:39:33;;;;;;;24.13;13.10;;;-0.80;99.90;;;;;;5048005;28;20128;-65
2021/12/27 01:41:59;;;;;;;34.10;15.20;;;-0.80;99.90;;;;;;5037001;28;20466;-65
2021/12/27 01:44:25;;;;;;;30.08;15.13;;;-0.80;99.90;;;;;;5030207;28;20041;-65
2021/12/27 01:46:52;;;;;;;29.23;15.30;;;-0.80;99.90;;;;;;5043445;28;20041;-65
2021/12/27 01:49:18;;;;;;;27.40;14.15;;;-0.80;99.90;;;;;;5041521;28;20088;-65
2021/12/27 01:51:44;;;;;;;28.58;14.38;;;-0.80;99.90;;;;;;5030770;28;20084;-65
2021/12/27 01:54:10;;;;;;;23.85;13.40;;;-0.80;99.90;;;;;;5031733;28;20029;-65
2021/12/27 01:56:36;;;;;;;28.60;14.75;;;-0.80;99.90;;;;;;5037778;28;20131;-65
2021/12/27 01:59:02;;;;;;;27.27;14.02;;;-0.70;99.90;;;;;;5022587;28;20442;-65
2021/12/27 02:01:27;;;;;;;24.77;15.00;;;-0.70;99.90;;;;;;5032043;28;20045;-65
2021/12/27 02:03:54;;;;;;;28.80;14.20;;;-0.70;99.90;;;;;;5031537;28;20033;-65
2021/12/27 02:06:20;;;;;;;28.48;14.48;;;-0.70;99.90;;;;;;5038907;28;20048;-65
2021/12/27 02:08:46;;;;;;;25.98;13.93;;;-0.70;99.90;;;;;;5032775;28;20338;-65
2021/12/27 02:11:16;;;;;;;28.20;14.35;;;-0.70;99.90;;;;;;5026728;28;20088;-65
2021/12/27 02:13:44;;;;;;;26.95;13.52;;;-0.70;99.90;;;;;;5034605;28;20056;-65
2021/12/27 02:16:21;;;;;;;30.45;14.75;;;-0.70;99.90;;;;;;5040768;28;20511;-65
2021/12/27 02:18:48;;;;;;;28.77;14.07;;;-0.70;99.90;;;;;;5032006;28;20373;-65
2021/12/27 02:21:14;;;;;;;27.55;14.25;;;-0.70;99.90;;;;;;5035209;28;20155;-65
2021/12/27 02:23:43;;;;;;;32.78;15.60;;;-0.60;99.90;;;;;;5029505;28;20428;-65
2021/12/27 02:26:09;;;;;;;30.45;14.25;;;-0.60;99.90;;;;;;5046879;28;20106;-65
2021/12/27 02:28:36;;;;;;;32.60;15.18;;;-0.60;99.90;;;;;;5038235;28;20048;-66
2021/12/27 02:31:03;;;;;;;29.50;15.07;;;-0.60;99.90;;;;;;5039304;28;20472;-64
2021/12/27 02:33:29;;;;;;;29.98;14.52;;;-0.60;99.90;;;;;;5046196;28;20052;-65
2021/12/27 02:35:57;;;;;;;30.63;15.05;;;-0.60;99.90;;;;;;5042502;28;20041;-65
2021/12/27 02:38:31;;;;;;;25.55;13.82;;;-0.60;99.90;;;;;;5044724;28;20083;-64
2021/12/27 02:40:58;;;;;;;33.83;15.98;;;-0.60;99.90;;;;;;5034818;28;20532;-66
2021/12/27 02:43:27;;;;;;;31.05;14.30;;;-0.50;99.90;;;;;;5038469;28;20057;-64
2021/12/27 02:46:01;;;;;;;33.60;15.18;;;-0.50;99.90;;;;;;5010865;28;20045;-65
2021/12/27 02:48:32;;;;;;;32.33;15.93;;;-0.50;99.90;;;;;;5013203;28;20499;-65
2021/12/27 02:50:59;;;;;;;29.33;14.48;;;-0.50;99.90;;;;;;5042375;28;20450;-65
2021/12/27 02:53:25;;;;;;;28.65;14.18;;;-0.50;99.90;;;;;;5031626;28;20136;-63
2021/12/27 02:55:53;;;;;;;30.98;15.85;;;-0.50;99.90;;;;;;5036493;28;20574;-65
2021/12/27 02:58:19;;;;;;;30.45;16.85;;;-0.50;99.90;;;;;;5033802;28;20080;-65
2021/12/27 03:00:51;;;;;;;31.35;15.23;;;-0.50;99.90;;;;;;5028655;28;20080;-65
2021/12/27 03:03:17;;;;;;;35.08;17.75;;;-0.50;99.90;;;;;;5035442;28;20037;-64
2021/12/27 03:05:44;;;;;;;29.23;14.98;;;-0.50;99.90;;;;;;5041667;28;20045;-64
2021/12/27 03:08:14;;;;;;;29.67;15.88;;;-0.50;99.90;;;;;;5031491;28;20436;-65
2021/12/27 03:10:41;;;;;;;31.00;15.88;;;-0.50;99.90;;;;;;5046536;28;20048;-64
2021/12/27 03:13:07;;;;;;;29.73;15.30;;;-0.50;99.90;;;;;;5035599;28;20176;-65
2021/12/27 03:15:33;;;;;;;27.50;14.63;;;-0.50;99.90;;;;;;5050403;28;20192;-65
2021/12/27 03:17:58;;;;;;;33.00;15.80;;;-0.50;99.90;;;;;;5046038;28;20059;-65
2021/12/27 03:20:26;;;;;;;32.72;16.90;;;-0.50;99.90;;;;;;5026774;28;20048;-65
2021/12/27 03:22:53;;;;;;;27.73;16.02;;;-0.50;99.90;;;;;;5043184;28;20147;-67
2021/12/27 03:25:22;;;;;;;30.88;15.98;;;-0.50;99.90;;;;;;5037469;28;20033;-64
2021/12/27 03:27:48;;;;;;;31.33;15.32;;;-0.40;99.90;;;;;;5037292;28;20103;-65
2021/12/27 03:30:23;;;;;;;28.73;14.00;;;-0.40;99.90;;;;;;5014112;28;20045;-66
2021/12/27 03:32:49;;;;;;;33.58;16.08;;;-0.40;99.90;;;;;;5043713;28;20510;-65
2021/12/27 03:35:24;;;;;;;32.17;15.88;;;-0.40;99.90;;;;;;5030530;28;20045;-65
2021/12/27 03:37:50;;;;;;;30.65;15.88;;;-0.40;99.90;;;;;;5018776;28;20029;-65
2021/12/27 03:40:19;;;;;;;28.77;14.73;;;-0.40;99.90;;;;;;5047290;28;20077;-65
2021/12/27 03:42:49;;;;;;;30.08;15.32;;;-0.40;99.90;;;;;;5038418;28;20132;-65
2021/12/27 03:45:20;;;;;;;30.10;15.98;;;-0.40;99.90;;;;;;5031546;28;20118;-66
2021/12/27 03:47:47;;;;;;;33.03;16.90;;;-0.30;99.90;;;;;;5046051;28;20040;-65
2021/12/27 03:50:13;;;;;;;31.40;16.15;;;-0.40;99.90;;;;;;5049623;28;20806;-65
2021/12/27 03:52:38;;;;;;;30.75;15.18;;;-0.30;99.90;;;;;;5030414;28;20054;-64
2021/12/27 03:55:06;;;;;;;29.90;14.68;;;-0.30;99.90;;;;;;5041608;28;20043;-65
2021/12/27 03:57:33;;;;;;;33.85;16.65;;;-0.30;99.90;;;;;;5035931;28;20060;-66
2021/12/27 04:00:46;;;;;;;30.85;15.85;;;-0.30;99.90;;;;;;5029705;28;20055;-65
2021/12/27 04:02:54;;;;;;;28.45;15.65;;;-0.20;99.90;;;;;;5033117;28;20056;-65
2021/12/27 04:05:21;;;;;;;34.28;16.17;;;-0.30;99.90;;;;;;5037055;28;20120;-65
2021/12/27 04:07:49;;;;;;;38.10;16.67;;;-0.20;99.90;;;;;;5020188;28;20103;-65
2021/12/27 04:10:14;;;;;;;31.60;15.27;;;-0.30;99.90;;;;;;5045584;28;20159;-64
2021/12/27 04:12:40;;;;;;;31.77;15.13;;;-0.30;99.90;;;;;;5033662;28;20536;-65
2021/12/27 04:15:09;;;;;;;33.00;16.38;;;-0.20;99.90;;;;;;5034689;28;20080;-65
2021/12/27 04:17:36;;;;;;;32.38;15.88;;;-0.20;99.90;;;;;;5039368;28;20048;-65
2021/12/27 04:20:02;;;;;;;30.92;16.15;;;-0.20;99.90;;;;;;5030998;28;20428;-64
2021/12/27 04:22:28;;;;;;;33.65;16.10;;;-0.20;99.90;;;;;;5036252;28;20041;-65
2021/12/27 04:24:54;;;;;;;27.52;15.20;;;-0.20;99.90;;;;;;5031030;28;20464;-64
2021/12/27 04:27:20;;;;;;;31.83;16.83;;;-0.20;99.90;;;;;;5026279;28;20040;-65
2021/12/27 04:29:46;;;;;;;33.42;16.23;;;-0.20;99.90;;;;;;5031226;28;20057;-65
2021/12/27 04:32:11;;;;;;;32.28;16.67;;;-0.20;99.90;;;;;;5047779;28;20041;-64
2021/12/27 04:34:38;;;;;;;30.10;15.30;;;-0.20;99.90;;;;;;5045127;28;20155;-65
2021/12/27 04:37:03;;;;;;;38.65;16.85;;;-0.20;99.90;;;;;;5038476;28;20048;-65
2021/12/27 04:39:29;;;;;;;30.58;16.08;;;-0.20;99.90;;;;;;5047344;28;20041;-65
2021/12/27 04:41:56;;;;;;;32.13;15.85;;;-0.20;99.90;;;;;;5035736;28;20393;-65
2021/12/27 04:44:21;;;;;;;33.13;15.75;;;-0.20;99.90;;;;;;5039429;28;20048;-65
2021/12/27 04:46:47;;;;;;;31.30;15.32;;;-0.20;99.90;;;;;;5028549;28;20041;-65
2021/12/27 04:49:12;;;;;;;32.63;16.65;;;-0.20;99.90;;;;;;5032912;28;20041;-64
2021/12/27 04:51:38;;;;;;;32.42;15.82;;;-0.20;99.90;;;;;;5046533;28;20038;-63
2021/12/27 04:54:03;;;;;;;35.03;17.17;;;-0.20;99.90;;;;;;5042732;28;20226;-64
2021/12/27 04:56:29;;;;;;;37.30;17.85;;;-0.20;99.90;;;;;;5048039;28;20419;-64
2021/12/27 04:58:54;;;;;;;33.35;15.88;;;-0.20;99.90;;;;;;5048712;28;20040;-65
2021/12/27 05:01:22;;;;;;;35.42;17.42;;;-0.20;99.90;;;;;;5025211;28;20037;-65
2021/12/27 05:03:48;;;;;;;27.92;15.40;;;-0.20;99.90;;;;;;5039955;28;20036;-65
2021/12/27 05:06:13;;;;;;;33.67;16.10;;;-0.20;99.90;;;;;;5037378;28;20044;-65
2021/12/27 05:08:40;;;;;;;31.02;15.60;;;-0.20;99.90;;;;;;5032622;28;20037;-64
2021/12/27 05:11:06;;;;;;;32.05;14.63;;;-0.20;99.90;;;;;;5032352;28;20068;-65
2021/12/27 05:13:32;;;;;;;34.40;16.98;;;-0.10;99.90;;;;;;5020337;28;20034;-64
2021/12/27 05:15:59;;;;;;;32.78;16.75;;;-0.10;99.90;;;;;;5042687;28;20049;-64
2021/12/27 05:18:25;;;;;;;33.25;16.33;;;-0.10;99.90;;;;;;5036203;28;20038;-65
2021/12/27 05:20:51;;;;;;;35.63;17.33;;;-0.10;99.90;;;;;;5044149;28;20369;-64
2021/12/27 05:23:16;;;;;;;32.13;16.85;;;-0.10;99.90;;;;;;5030526;28;20042;-65
2021/12/27 05:25:42;;;;;;;40.03;17.75;;;-0.20;99.90;;;;;;5044102;28;20055;-65
2021/12/27 05:28:09;;;;;;;34.55;17.95;;;-0.20;99.90;;;;;;5039814;28;20060;-65
2021/12/27 05:30:35;;;;;;;34.35;17.25;;;-0.20;99.90;;;;;;5031354;28;20059;-64
2021/12/27 05:33:01;;;;;;;34.00;18.90;;;-0.20;99.90;;;;;;5045340;28;20402;-65
2021/12/27 05:35:26;;;;;;;39.40;18.02;;;-0.20;99.90;;;;;;5040114;28;20044;-65
2021/12/27 05:37:52;;;;;;;32.75;16.77;;;-0.20;99.90;;;;;;5030605;28;20041;-64
2021/12/27 05:40:22;;;;;;;37.17;16.48;;;-0.20;99.90;;;;;;5038295;28;20035;-64
2021/12/27 05:42:50;;;;;;;31.83;16.87;;;-0.20;99.90;;;;;;5028885;28;20152;-65
2021/12/27 05:45:16;;;;;;;37.50;18.67;;;-0.20;99.90;;;;;;5015476;28;20361;-65
2021/12/27 05:47:42;;;;;;;32.30;17.17;;;-0.20;99.90;;;;;;5037932;28;20098;-64
2021/12/27 05:50:09;;;;;;;37.58;18.25;;;-0.20;99.90;;;;;;5028186;28;20132;-64
2021/12/27 05:52:35;;;;;;;37.88;19.73;;;-0.20;99.90;;;;;;5039759;28;20484;-64
2021/12/27 05:55:01;;;;;;;34.83;17.13;;;-0.20;99.90;;;;;;5037813;28;20041;-64
2021/12/27 05:57:27;;;;;;;35.30;17.55;;;-0.20;99.90;;;;;;5034329;28;20103;-65
2021/12/27 05:59:53;;;;;;;36.20;17.92;;;-0.20;99.90;;;;;;5033437;28;20049;-65
2021/12/27 06:02:19;;;;;;;30.85;15.82;;;-0.20;99.90;;;;;;5038433;28;20133;-64
2021/12/27 06:04:44;;;;;;;34.70;17.63;;;-0.10;99.90;;;;;;5039930;28;20037;-65
2021/12/27 06:07:10;;;;;;;32.72;16.58;;;-0.10;99.90;;;;;;5037389;28;20038;-64
2021/12/27 06:09:35;;;;;;;34.97;17.30;;;-0.10;99.90;;;;;;5042125;28;20045;-65
2021/12/27 06:12:01;;;;;;;35.78;17.17;;;-0.10;99.90;;;;;;5042652;28;20041;-65
2021/12/27 06:14:27;;;;;;;37.40;17.55;;;-0.10;99.90;;;;;;5041794;28;20090;-65
2021/12/27 06:16:52;;;;;;;36.95;19.38;;;-0.10;99.90;;;;;;5031376;28;20057;-63
2021/12/27 06:19:18;;;;;;;40.72;18.83;;;-0.10;99.90;;;;;;5028068;28;20044;-65
2021/12/27 06:21:43;;;;;;;35.47;16.65;;;-0.10;99.90;;;;;;5044422;28;20037;-64
2021/12/27 06:24:09;;;;;;;36.78;16.27;;;-0.10;99.90;;;;;;5032273;28;20030;-64
2021/12/27 06:26:34;;;;;;;36.28;17.30;;;-0.20;99.90;;;;;;5043526;28;20102;-65
2021/12/27 06:29:00;;;;;;;42.90;19.02;;;-0.10;99.90;;;;;;5033135;28;20128;-65
2021/12/27 06:31:26;;;;;;;41.00;18.67;;;-0.10;99.90;;;;;;5039010;28;20041;-65
2021/12/27 06:33:51;;;;;;;46.13;21.25;;;-0.10;99.90;;;;;;5042085;28;20042;-65
2021/12/27 06:36:17;;;;;;;42.90;20.77;;;-0.20;99.90;;;;;;5044963;28;20489;-65
2021/12/27 06:38:42;;;;;;;41.85;18.92;;;-0.10;99.90;;;;;;5017105;28;20044;-65
2021/12/27 06:41:09;;;;;;;39.50;19.30;;;-0.10;99.90;;;;;;5027308;28;20481;-65
2021/12/27 06:43:34;;;;;;;45.20;20.10;;;-0.10;99.90;;;;;;5030621;28;20094;-65
2021/12/27 06:46:00;;;;;;;45.15;21.02;;;-0.10;99.90;;;;;;5031604;28;20033;-64
2021/12/27 06:48:26;;;;;;;43.78;20.00;;;-0.10;99.90;;;;;;5043278;28;20030;-64
2021/12/27 06:50:52;;;;;;;40.88;17.73;;;-0.10;99.90;;;;;;5033200;28;20068;-64
2021/12/27 06:53:18;;;;;;;40.97;19.98;;;-0.10;99.90;;;;;;5032815;28;20442;-65
2021/12/27 06:55:45;;;;;;;39.38;18.52;;;-0.10;99.90;;;;;;5038935;28;20036;-64
2021/12/27 06:58:11;;;;;;;45.05;19.55;;;-0.10;99.90;;;;;;5033487;28;20076;-64
2021/12/27 07:00:37;;;;;;;43.22;20.42;;;-0.10;99.90;;;;;;5026511;28;20638;-64
2021/12/27 07:03:03;;;;;;;37.28;18.50;;;-0.10;99.90;;;;;;5030183;28;20064;-64
2021/12/27 07:05:28;;;;;;;43.58;20.88;;;-0.10;99.90;;;;;;5042920;28;20118;-64
2021/12/27 07:07:54;;;;;;;43.40;20.00;;;-0.10;99.90;;;;;;5028653;28;20084;-64
2021/12/27 07:10:22;;;;;;;38.03;19.15;;;-0.10;99.90;;;;;;5039192;28;20054;-64
2021/12/27 07:12:48;;;;;;;44.00;18.60;;;-0.10;99.90;;;;;;5034309;28;20050;-65
2021/12/27 07:15:13;;;;;;;41.33;20.02;;;-0.10;99.90;;;;;;5032244;28;20041;-65
2021/12/27 07:17:40;;;;;;;46.67;22.08;;;-0.10;99.90;;;;;;5011673;28;20501;-64
2021/12/27 07:20:06;;;;;;;44.13;20.90;;;-0.10;99.90;;;;;;5014836;28;20373;-64
2021/12/27 07:22:32;;;;;;;41.13;19.48;;;-0.10;99.90;;;;;;5026718;28;20037;-64
2021/12/27 07:24:58;;;;;;;45.35;21.52;;;-0.10;99.90;;;;;;5042230;28;20044;-64
2021/12/27 07:27:23;;;;;;;37.50;17.98;;;-0.10;99.90;;;;;;5007743;28;20064;-64
2021/12/27 07:29:49;;;;;;;49.70;21.35;;;-0.10;99.90;;;;;;5039190;28;20453;-64
2021/12/27 07:32:15;;;;;;;45.38;21.50;;;-0.10;99.90;;;;;;5031046;28;20092;-65
2021/12/27 07:34:41;;;;;;;53.60;22.05;;;-0.10;99.90;;;;;;5045146;28;20092;-64
2021/12/27 07:37:07;;;;;;;48.05;22.27;;;-0.10;99.90;;;;;;5037976;28;20417;-65
2021/12/27 07:39:33;;;;;;;46.55;22.70;;;0.00;99.90;;;;;;5028581;28;20025;-64
2021/12/27 07:41:58;;;;;;;48.25;20.77;;;0.00;99.90;;;;;;5045894;28;20510;-65
2021/12/27 07:44:24;;;;;;;53.75;22.65;;;0.00;99.90;;;;;;5052744;28;20492;-64
2021/12/27 07:46:51;;;;;;;56.65;23.02;;;0.00;99.90;;;;;;5029091;28;20049;-64
2021/12/27 07:49:17;;;;;;;42.00;18.38;;;0.00;99.90;;;;;;5029858;28;20140;-65
2021/12/27 07:51:44;;;;;;;52.67;21.25;;;0.00;99.90;;;;;;5047545;28;20037;-64
2021/12/27 07:54:10;;;;;;;47.80;20.90;;;0.00;99.90;;;;;;5034219;28;20132;-64
2021/12/27 07:56:37;;;;;;;46.97;21.92;;;0.00;99.90;;;;;;5035272;28;20167;-64
2021/12/27 07:59:04;;;;;;;46.40;21.35;;;0.10;99.90;;;;;;5031917;28;20116;-64
2021/12/27 08:01:39;;;;;;;44.47;21.90;;;0.10;99.90;;;;;;5028661;28;20331;-64
2021/12/27 08:04:05;;;;;;;44.30;21.20;;;0.10;99.90;;;;;;5033022;28;20045;-64
2021/12/27 08:06:31;;;;;;;50.97;22.70;;;0.10;99.90;;;;;;5038095;28;20124;-65
2021/12/27 08:08:57;;;;;;;46.60;20.90;;;0.10;99.90;;;;;;5035733;28;20137;-64
2021/12/27 08:11:24;;;;;;;48.60;21.35;;;0.10;99.90;;;;;;5032474;28;20456;-63
2021/12/27 08:13:50;;;;;;;47.83;22.60;;;0.10;99.90;;;;;;5049298;28;20140;-64
2021/12/27 08:16:17;;;;;;;44.85;21.23;;;0.20;99.90;;;;;;5029528;28;20050;-64
2021/12/27 08:18:46;;;;;;;42.50;21.13;;;0.20;99.90;;;;;;5046143;28;20041;-64
2021/12/27 08:21:12;;;;;;;45.20;20.00;;;0.10;99.90;;;;;;5031526;28;20077;-64
2021/12/27 08:23:38;;;;;;;47.22;21.30;;;0.20;99.90;;;;;;5013858;28;20284;-64
2021/12/27 08:26:03;;;;;;;51.95;23.25;;;0.20;99.90;;;;;;5030623;28;20036;-64
2021/12/27 08:28:30;;;;;;;48.78;20.90;;;0.20;99.90;;;;;;5043097;28;20033;-63
2021/12/27 08:30:55;;;;;;;46.47;21.30;;;0.20;99.90;;;;;;5049327;28;20067;-64
2021/12/27 08:33:21;;;;;;;51.95;22.38;;;0.20;99.90;;;;;;5047438;28;20659;-64
2021/12/27 08:35:47;;;;;;;51.30;19.90;;;0.20;99.90;;;;;;5036340;28;20490;-64
2021/12/27 08:38:13;;;;;;;53.33;23.42;;;0.20;99.90;;;;;;5030808;28;20034;-64
2021/12/27 08:40:38;;;;;;;51.38;22.15;;;0.20;99.90;;;;;;5030856;28;20087;-64
2021/12/27 08:43:04;;;;;;;54.58;22.92;;;0.20;99.90;;;;;;5034676;28;20042;-65
2021/12/27 08:45:29;;;;;;;44.30;21.17;;;0.30;99.90;;;;;;5025139;28;20033;-63
2021/12/27 08:47:55;;;;;;;50.80;19.42;;;0.30;99.90;;;;;;5039470;28;20061;-64
2021/12/27 08:50:21;;;;;;;49.47;21.40;;;0.30;99.90;;;;;;5041148;28;20051;-65
2021/12/27 08:52:47;;;;;;;52.45;21.15;;;0.30;99.90;;;;;;5030223;28;20037;-67
2021/12/27 08:55:13;;;;;;;53.45;23.00;;;0.30;99.90;;;;;;5033647;28;20041;-65
2021/12/27 08:57:40;;;;;;;52.10;22.33;;;0.30;99.90;;;;;;5049507;28;20047;-65
2021/12/27 09:00:08;;;;;;;54.63;23.15;;;0.30;99.90;;;;;;5044702;28;20052;-64
2021/12/27 09:02:34;;;;;;;48.38;21.13;;;0.30;99.90;;;;;;5030910;28;20041;-65
2021/12/27 09:05:00;;;;;;;54.83;21.85;;;0.30;99.90;;;;;;5030211;28;20045;-64
2021/12/27 09:07:26;;;;;;;51.80;23.08;;;0.30;99.90;;;;;;5032591;28;20041;-64
2021/12/27 09:09:52;;;;;;;55.97;21.30;;;0.30;99.90;;;;;;5030098;28;20164;-65
2021/12/27 09:12:18;;;;;;;57.10;23.33;;;0.40;99.90;;;;;;5020176;28;20059;-64
2021/12/27 09:14:43;;;;;;;51.75;21.25;;;0.40;99.90;;;;;;5042405;28;20033;-65
2021/12/27 09:17:09;;;;;;;52.08;22.67;;;0.40;99.90;;;;;;5030944;28;20389;-64
2021/12/27 09:19:35;;;;;;;46.67;18.85;;;0.40;99.90;;;;;;5030645;28;20175;-64
2021/12/27 09:22:01;;;;;;;57.85;22.52;;;0.40;99.90;;;;;;5031180;28;20395;-64
2021/12/27 09:24:28;;;;;;;52.47;23.00;;;0.40;99.90;;;;;;5013825;28;20037;-65
2021/12/27 09:26:54;;;;;;;46.22;18.65;;;0.50;99.90;;;;;;5047457;28;20095;-64
2021/12/27 09:29:20;;;;;;;57.92;21.83;;;0.50;99.90;;;;;;5048686;28;20451;-64
2021/12/27 09:31:46;;;;;;;56.25;23.58;;;0.50;99.90;;;;;;5037834;28;20125;-64
2021/12/27 09:34:11;;;;;;;66.25;22.92;;;0.50;99.90;;;;;;5029596;28;20037;-64
2021/12/27 09:36:37;;;;;;;57.03;24.05;;;0.60;99.90;;;;;;5028807;28;20034;-63
2021/12/27 09:39:04;;;;;;;56.03;24.60;;;0.60;99.90;;;;;;5023105;28;20039;-64
2021/12/27 09:41:29;;;;;;;60.30;24.27;;;0.70;99.90;;;;;;5029524;28;20448;-64
2021/12/27 09:43:55;;;;;;;64.78;25.08;;;0.70;99.90;;;;;;5036915;28;20048;-63
2021/12/27 09:46:22;;;;;;;66.60;23.75;;;0.70;99.90;;;;;;5027603;28;20492;-64
2021/12/27 09:48:50;;;;;;;54.20;21.00;;;0.70;99.90;;;;;;5032839;28;20080;-64
2021/12/27 09:51:16;;;;;;;70.82;23.52;;;0.70;99.90;;;;;;5044607;28;20510;-64
2021/12/27 09:53:42;;;;;;;65.30;24.95;;;0.80;99.90;;;;;;5040194;28;20135;-64
2021/12/27 09:56:09;;;;;;;69.10;25.02;;;0.80;99.90;;;;;;5035176;28;20041;-65
2021/12/27 09:58:34;;;;;;;63.47;23.70;;;0.80;99.90;;;;;;5041131;28;20097;-65
2021/12/27 10:01:03;;;;;;;71.80;25.35;;;0.90;99.90;;;;;;5044210;28;20045;-65
2021/12/27 10:03:29;;;;;;;73.53;24.65;;;0.90;99.90;;;;;;5042696;28;20342;-65
2021/12/27 10:06:08;;;;;;;78.00;26.42;;;1.00;99.90;;;;;;5049522;28;20060;-64
2021/12/27 10:08:34;;;;;;;64.32;22.63;;;1.00;99.90;;;;;;5047816;28;20493;-65
2021/12/27 10:10:59;;;;;;;78.68;24.13;;;1.00;99.90;;;;;;5031240;28;20058;-64
2021/12/27 10:13:25;;;;;;;77.50;26.15;;;1.10;99.90;;;;;;5031022;28;20049;-64
2021/12/27 10:15:51;;;;;;;79.63;26.92;;;1.10;99.90;;;;;;5027974;28;20046;-64
2021/12/27 10:18:17;;;;;;;83.80;27.17;;;1.10;99.90;;;;;;5028714;28;20029;-64
2021/12/27 10:20:44;;;;;;;88.10;28.90;;;1.10;99.90;;;;;;5044874;28;20040;-64
2021/12/27 10:23:12;;;;;;;96.22;31.10;;;1.10;99.90;;;;;;5047307;28;20377;-64
2021/12/27 10:25:38;;;;;;;90.55;27.20;;;1.10;99.90;;;;;;5048901;28;20044;-65
2021/12/27 10:28:06;;;;;;;92.38;28.33;;;1.10;99.90;;;;;;5042264;28;20461;-63
2021/12/27 10:30:40;;;;;;;94.25;29.92;;;1.20;99.90;;;;;;5039802;28;20048;-65
2021/12/27 10:33:15;;;;;;;73.70;23.75;;;1.20;99.90;;;;;;5038380;28;20462;-64
2021/12/27 10:35:43;;;;;;;86.15;29.38;;;1.20;99.90;;;;;;5039957;28;20036;-64
2021/12/27 10:38:23;;;;;;;89.95;27.75;;;1.20;99.90;;;;;;5048759;28;20041;-63
2021/12/27 10:40:50;;;;;;;;;;;1.30;99.90;;;;;;5017796;28;20090;-63
2021/12/27 10:43:18;;;;;;;83.43;26.52;;;1.30;99.90;;;;;;5035837;28;19920;-64
2021/12/27 10:45:46;;;;;;;95.07;31.08;;;1.30;99.90;;;;;;5027122;28;20126;-63
2021/12/27 10:48:21;;;;;;;106.15;30.23;;;1.40;99.90;;;;;;5028665;28;20041;-64
2021/12/27 10:50:48;;;;;;;99.03;30.58;;;1.40;99.90;;;;;;5029083;28;20049;-63
2021/12/27 10:53:15;;;;;;;100.05;30.23;;;1.50;99.90;;;;;;5011999;28;20132;-65
2021/12/27 10:55:46;;;;;;;100.95;31.40;;;1.50;99.90;;;;;;5017019;28;20056;-64
2021/12/27 10:58:23;;;;;;;98.55;28.95;;;1.50;99.90;;;;;;5038637;28;20346;-64
2021/12/27 11:00:54;;;;;;;102.82;30.27;;;1.50;99.90;;;;;;5029242;28;20045;-64
2021/12/27 11:03:31;;;;;;;104.93;30.73;;;1.50;99.90;;;;;;5030539;28;20060;-64
2021/12/27 11:05:58;;;;;;;100.43;30.00;;;1.50;99.90;;;;;;5028516;28;20512;-64
2021/12/27 11:08:24;;;;;;;98.40;28.65;;;1.50;99.90;;;;;;5029528;28;20041;-64
2021/12/27 11:10:50;;;;;;;117.20;31.45;;;1.50;99.90;;;;;;5049680;28;20053;-64
2021/12/27 11:13:16;;;;;;;105.90;31.27;;;1.50;99.90;;;;;;5047056;28;20155;-64
2021/12/27 11:15:42;;;;;;;100.25;30.73;;;1.40;99.90;;;;;;5035300;28;20102;-64
2021/12/27 11:18:10;;;;;;;120.60;32.53;;;1.50;99.90;;;;;;5027608;28;20034;-64
2021/12/27 11:20:36;;;;;;;118.50;32.13;;;1.50;99.90;;;;;;5028776;28;20052;-64
2021/12/27 11:23:03;;;;;;;113.13;32.92;;;1.50;99.90;;;;;;5033488;28;20045;-64
2021/12/27 11:25:36;;;;;;;122.13;32.90;;;1.50;99.90;;;;;;5038427;28;20095;-64
2021/12/27 11:28:24;;;;;;;122.35;33.33;;;1.60;99.90;;;;;;5031861;28;20045;-64
2021/12/27 11:30:50;;;;;;;104.88;30.40;;;1.60;99.90;;;;;;5040114;28;20072;-64
2021/12/27 11:33:20;;;;;;;102.45;30.20;;;1.60;99.90;;;;;;5050212;28;20045;-64
2021/12/27 11:35:51;;;;;;;118.63;33.35;;;1.60;99.90;;;;;;5042275;28;20037;-64
2021/12/27 11:38:42;;;;;;;118.88;33.72;;;1.60;99.90;;;;;;5047128;28;20051;-64
2021/12/27 11:41:34;;;;;;;119.57;33.53;;;1.60;99.90;;;;;;5037738;28;20146;-64
2021/12/27 11:44:01;;;;;;;99.57;28.13;;;1.60;99.90;;;;;;5030476;28;20054;-65
2021/12/27 11:46:48;;;;;;;107.63;32.92;;;1.60;99.90;;;;;;5044732;28;20067;-64
2021/12/27 11:49:16;;;;;;;136.60;35.25;;;1.60;99.90;;;;;;5045732;28;20389;-64
2021/12/27 11:51:42;;;;;;;129.40;33.13;;;1.60;99.90;;;;;;5046143;28;20042;-64
2021/12/27 11:54:34;;;;;;;143.57;34.47;;;1.70;99.90;;;;;;5032747;28;20041;-65
2021/12/27 11:57:00;;;;;;;130.13;33.70;;;1.70;99.90;;;;;;5037483;28;20130;-65
2021/12/27 11:59:25;;;;;;;130.52;32.80;;;1.70;99.90;;;;;;5031606;28;20488;-64
2021/12/27 12:01:53;;;;;;;131.82;35.45;;;1.60;99.90;;;;;;5042072;28;20051;-65
2021/12/27 12:04:48;;;;;;;125.53;34.05;;;1.60;99.90;;;;;;5014880;28;20049;-65
2021/12/27 12:07:34;;;;;;;126.38;35.33;;;1.60;99.90;;;;;;5042213;28;20044;-65
2021/12/27 12:10:02;;;;;;;129.45;33.72;;;1.60;99.90;;;;;;5024253;28;20049;-65
2021/12/27 12:12:28;;;;;;;136.85;35.60;;;1.60;99.90;;;;;;5052107;28;20063;-65
2021/12/27 12:14:58;;;;;;;132.73;36.33;;;1.60;99.90;;;;;;5048376;28;20033;-65
2021/12/27 12:17:50;;;;;;;154.43;37.65;;;1.70;99.90;;;;;;5032097;28;20335;-65
2021/12/27 12:20:35;;;;;;;118.50;33.17;;;1.70;99.90;;;;;;5031377;28;20124;-65
2021/12/27 12:23:09;;;;;;;146.60;36.47;;;1.80;99.90;;;;;;5032348;28;20121;-65
2021/12/27 12:25:36;;;;;;;123.03;35.58;;;1.80;99.90;;;;;;5050845;28;20464;-66
2021/12/27 12:28:05;;;;;;;134.00;34.03;;;1.80;99.90;;;;;;5033284;28;20041;-65
2021/12/27 12:30:34;;;;;;;143.13;35.45;;;1.80;99.90;;;;;;5046038;28;20064;-65
2021/12/27 12:33:19;;;;;;;119.45;31.67;;;1.80;99.90;;;;;;5033926;28;20048;-65
2021/12/27 12:35:50;;;;;;;144.60;35.78;;;1.80;99.90;;;;;;5035488;28;20045;-65